createdAt,value
2018-06-27T00:01:24.764Z,61.70
2018-06-27T00:03:56.206Z,61.65
2018-06-27T00:06:28.238Z,61.86
2018-06-27T00:08:58.614Z,61.98
2018-06-27T00:11:29.203Z,62.45
2018-06-27T00:13:59.907Z,62.26
2018-06-27T00:16:30.619Z,62.44
2018-06-27T00:19:01.194Z,62.24
2018-06-27T00:21:31.607Z,62.28
2018-06-27T00:24:02.004Z,62.59
2018-06-27T00:26:32.541Z,62.54
2018-06-27T00:29:03.184Z,62.63
2018-06-27T00:31:33.767Z,62.84
2018-06-27T00:34:04.239Z,63.09
2018-06-27T00:36:34.876Z,62.70
2018-06-27T00:39:07.395Z,62.88
2018-06-27T00:41:38.031Z,62.41
2018-06-27T00:44:08.466Z,62.39
2018-06-27T00:46:38.880Z,62.27
2018-06-27T00:49:09.191Z,62.53
2018-06-27T00:51:39.563Z,62.35
2018-06-27T00:54:10.436Z,62.59
2018-06-27T00:56:41.693Z,62.54
2018-06-27T00:59:12.193Z,61.91
2018-06-27T01:01:42.512Z,61.88
2018-06-27T01:04:13.034Z,62.19
2018-06-27T01:06:43.653Z,62.14
2018-06-27T01:09:14.014Z,62.56
2018-06-27T01:11:44.499Z,63.30
2018-06-27T01:14:14.883Z,63.95
2018-06-27T01:16:45.441Z,66.02
2018-06-27T01:19:15.989Z,67.89
2018-06-27T01:21:47.147Z,69.81
2018-06-27T01:24:17.828Z,71.67
2018-06-27T01:26:48.499Z,73.18
2018-06-27T01:29:18.969Z,75.49
2018-06-27T01:31:49.514Z,75.69
2018-06-27T01:34:19.946Z,75.07
2018-06-27T01:36:50.299Z,75.84
2018-06-27T01:39:20.927Z,76.17
2018-06-27T01:41:51.448Z,76.17
2018-06-27T01:44:21.851Z,76.47
2018-06-27T01:46:52.460Z,75.36
2018-06-27T01:49:22.860Z,75.71
2018-06-27T01:51:52.962Z,74.03
2018-06-27T01:54:23.410Z,73.47
2018-06-27T01:56:53.925Z,74.62
2018-06-27T01:59:24.406Z,74.31
2018-06-27T02:01:55.265Z,74.27
2018-06-27T02:04:25.757Z,75.91
2018-06-27T02:06:56.335Z,75.42
2018-06-27T02:09:26.769Z,75.53
2018-06-27T02:11:57.225Z,76.45
2018-06-27T02:14:27.670Z,77.62
2018-06-27T02:16:58.447Z,78.70
2018-06-27T02:19:28.953Z,78.42
2018-06-27T02:21:59.316Z,78.39
2018-06-27T02:24:29.894Z,80.15
2018-06-27T02:27:00.404Z,80.27
2018-06-27T02:29:30.737Z,81.55
2018-06-27T02:32:01.239Z,83.17
2018-06-27T02:34:31.680Z,81.21
2018-06-27T02:37:02.172Z,79.95
2018-06-27T02:39:32.823Z,80.54
2018-06-27T02:42:03.372Z,81.60
2018-06-27T02:44:34.263Z,81.45
2018-06-27T02:47:04.663Z,81.28
2018-06-27T02:49:35.109Z,81.68
2018-06-27T02:52:05.771Z,81.79
2018-06-27T02:54:36.050Z,81.83
2018-06-27T02:57:06.780Z,81.77
2018-06-27T02:59:37.580Z,81.71
2018-06-27T03:02:08.155Z,80.67
2018-06-27T03:04:38.695Z,80.67
2018-06-27T03:07:09.085Z,80.82
2018-06-27T03:09:39.606Z,79.99
2018-06-27T03:12:10.178Z,78.64
2018-06-27T03:14:40.513Z,78.13
2018-06-27T03:17:10.933Z,78.00
2018-06-27T03:19:41.601Z,77.30
2018-06-27T03:22:12.136Z,76.56
2018-06-27T03:24:42.578Z,76.49
2018-06-27T03:27:13.329Z,76.26
2018-06-27T03:29:43.745Z,75.64
2018-06-27T03:32:14.344Z,74.02
2018-06-27T03:34:44.743Z,74.09
2018-06-27T03:37:15.110Z,74.03
2018-06-27T03:39:45.579Z,74.62
2018-06-27T03:42:15.950Z,73.45
2018-06-27T03:44:46.591Z,73.53
2018-06-27T03:47:16.937Z,72.93
2018-06-27T03:49:48.555Z,72.38
2018-06-27T03:52:19.104Z,72.59
2018-06-27T03:54:49.523Z,72.64
2018-06-27T03:57:20.350Z,72.25
2018-06-27T03:59:50.631Z,72.06
2018-06-27T04:02:21.097Z,72.30
2018-06-27T04:04:52.295Z,72.64
2018-06-27T04:07:22.960Z,72.23
2018-06-27T04:09:53.214Z,72.26
2018-06-27T04:12:23.620Z,72.25
2018-06-27T04:14:54.236Z,71.86
2018-06-27T04:17:24.683Z,71.59
2018-06-27T04:19:55.376Z,70.57
2018-06-27T04:22:33.648Z,70.65
2018-06-27T04:25:04.523Z,71.09
2018-06-27T04:27:35.208Z,70.53
2018-06-27T04:30:05.738Z,70.44
2018-06-27T04:32:36.032Z,70.26
2018-06-27T04:35:07.472Z,70.35
2018-06-27T04:37:37.843Z,70.35
2018-06-27T04:40:08.416Z,70.96
2018-06-27T04:42:38.943Z,70.90
2018-06-27T04:45:09.475Z,70.38
2018-06-27T04:47:39.819Z,70.16
2018-06-27T04:50:10.466Z,69.98
2018-06-27T04:52:41.023Z,69.90
2018-06-27T04:55:11.481Z,70.32
2018-06-27T04:57:42.256Z,70.08
2018-06-27T05:00:12.616Z,70.01
2018-06-27T05:02:42.843Z,70.51
2018-06-27T05:05:13.376Z,69.68
2018-06-27T05:07:43.972Z,69.50
2018-06-27T05:10:14.365Z,69.54
2018-06-27T05:12:44.824Z,69.61
2018-06-27T05:15:15.064Z,69.54
2018-06-27T05:17:45.627Z,69.93
2018-06-27T05:20:16.369Z,69.89
2018-06-27T05:22:46.805Z,69.09
2018-06-27T05:25:17.338Z,69.04
2018-06-27T05:27:47.913Z,68.89
2018-06-27T05:30:18.495Z,69.43
2018-06-27T05:32:48.908Z,69.28
2018-06-27T05:35:19.312Z,69.43
2018-06-27T05:37:49.757Z,69.56
2018-06-27T05:40:20.363Z,69.55
2018-06-27T05:42:50.772Z,69.54
2018-06-27T05:45:21.215Z,69.40
2018-06-27T05:47:51.522Z,69.09
2018-06-27T05:50:22.141Z,69.57
2018-06-27T05:52:52.604Z,69.32
2018-06-27T05:55:23.064Z,68.49
2018-06-27T05:57:53.477Z,68.12
2018-06-27T06:00:23.849Z,67.81
2018-06-27T06:02:54.235Z,67.51
2018-06-27T06:05:24.452Z,67.94
2018-06-27T06:07:54.723Z,68.10
2018-06-27T06:10:25.084Z,67.86
2018-06-27T06:12:55.688Z,67.68
2018-06-27T06:15:26.158Z,67.26
2018-06-27T06:17:56.741Z,67.64
2018-06-27T06:20:27.076Z,67.26
2018-06-27T06:22:57.675Z,65.81
2018-06-27T06:25:28.308Z,65.83
2018-06-27T06:27:58.558Z,66.05
2018-06-27T06:30:29.184Z,67.26
2018-06-27T06:32:59.672Z,67.43
2018-06-27T06:35:30.215Z,67.52
2018-06-27T06:38:00.536Z,68.10
2018-06-27T06:40:31.161Z,68.00
2018-06-27T06:43:01.615Z,68.02
2018-06-27T06:45:31.927Z,67.36
2018-06-27T06:48:02.381Z,67.19
2018-06-27T06:50:32.732Z,66.79
2018-06-27T06:53:03.197Z,66.52
2018-06-27T06:55:33.762Z,66.19
2018-06-27T06:58:04.592Z,66.15
2018-06-27T07:00:34.907Z,66.39
2018-06-27T07:03:05.431Z,66.32
2018-06-27T07:05:36.051Z,66.45
2018-06-27T07:08:06.384Z,66.60
2018-06-27T07:10:37.106Z,66.69
2018-06-27T07:13:07.629Z,65.79
2018-06-27T07:15:38.081Z,65.94
2018-06-27T07:18:08.467Z,64.94
2018-06-27T07:20:38.978Z,65.23
2018-06-27T07:23:09.333Z,64.75
2018-06-27T07:25:39.897Z,65.54
2018-06-27T07:28:10.378Z,64.88
2018-06-27T07:30:41.213Z,64.69
2018-06-27T07:33:11.579Z,64.45
2018-06-27T07:35:42.013Z,64.73
2018-06-27T07:38:12.329Z,65.27
2018-06-27T07:40:42.844Z,65.13
2018-06-27T07:43:13.483Z,65.84
2018-06-27T07:45:44.294Z,66.30
2018-06-27T07:48:14.500Z,66.52
2018-06-27T07:50:45.074Z,66.91
2018-06-27T07:53:15.289Z,67.62
2018-06-27T08:25:03.907Z,67.98
2018-06-27T08:43:17.892Z,73.05
2018-06-27T08:45:48.169Z,73.60
2018-06-27T08:48:18.528Z,73.75
2018-06-27T08:50:48.766Z,73.74
2018-06-27T08:53:19.305Z,74.45
2018-06-27T08:55:49.756Z,73.81
2018-06-27T08:58:20.023Z,73.64
2018-06-27T09:00:50.580Z,73.66
2018-06-27T09:03:21.200Z,72.42
2018-06-27T09:05:51.518Z,72.27
2018-06-27T09:08:21.975Z,71.93
2018-06-27T09:10:52.535Z,72.39
2018-06-27T09:13:23.927Z,71.34
2018-06-27T09:15:54.352Z,71.88
2018-06-27T09:18:24.876Z,71.37
2018-06-27T09:20:55.392Z,72.86
2018-06-27T09:23:25.793Z,72.88
2018-06-27T09:25:56.666Z,73.54
2018-06-27T09:28:27.155Z,72.72
2018-06-27T09:30:58.690Z,73.12
2018-06-27T09:33:28.984Z,72.76
2018-06-27T09:35:59.308Z,72.57
2018-06-27T09:38:30.075Z,72.12
2018-06-27T09:41:00.547Z,72.02
2018-06-27T09:43:30.988Z,72.45
2018-06-27T09:46:01.886Z,72.37
2018-06-27T09:48:32.395Z,72.43
2018-06-27T09:51:06.661Z,72.38
2018-06-27T09:53:37.458Z,73.03
2018-06-27T09:56:07.807Z,73.16
2018-06-27T09:58:38.207Z,74.48
2018-06-27T10:01:08.664Z,72.13
2018-06-27T10:03:39.181Z,73.03
2018-06-27T10:06:09.555Z,71.21
2018-06-27T10:08:39.934Z,70.47
2018-06-27T10:11:10.530Z,70.50
2018-06-27T10:13:40.903Z,71.28
2018-06-27T10:16:11.319Z,70.32
2018-06-27T10:18:42.008Z,69.52
2018-06-27T10:21:12.476Z,68.66
2018-06-27T10:23:42.857Z,68.69
2018-06-27T10:26:13.333Z,69.00
2018-06-27T10:28:43.832Z,68.81
2018-06-27T10:31:14.374Z,68.81
2018-06-27T10:33:44.646Z,69.48
2018-06-27T10:36:15.262Z,69.12
2018-06-27T10:38:46.073Z,69.13
2018-06-27T10:41:16.349Z,67.47
2018-06-27T10:43:46.822Z,66.24
2018-06-27T10:46:17.611Z,65.99
2018-06-27T10:48:48.156Z,65.99
2018-06-27T10:51:18.586Z,66.99
2018-06-27T10:53:48.933Z,67.16
2018-06-27T10:56:19.224Z,65.75
2018-06-27T10:58:49.987Z,65.81
2018-06-27T11:01:20.316Z,63.13
2018-06-27T11:03:51.112Z,63.09
2018-06-27T11:06:21.288Z,62.43
2018-06-27T11:08:51.568Z,62.35
2018-06-27T11:11:22.301Z,61.90
2018-06-27T11:13:52.912Z,63.83
2018-06-27T11:16:23.394Z,63.41
2018-06-27T11:18:53.601Z,63.15
2018-06-27T11:21:24.147Z,63.10
2018-06-27T11:23:54.575Z,61.08
2018-06-27T11:26:25.286Z,62.08
2018-06-27T11:28:55.720Z,62.80
2018-06-27T11:31:26.230Z,62.34
2018-06-27T11:33:56.716Z,63.17
2018-06-27T11:36:27.100Z,62.11
2018-06-27T11:38:57.681Z,61.58
2018-06-27T11:41:28.225Z,61.32
2018-06-27T11:43:58.727Z,61.52
2018-06-27T11:46:29.079Z,61.77
2018-06-27T11:48:59.659Z,61.65
2018-06-27T11:51:30.341Z,61.04
2018-06-27T11:54:00.753Z,61.45
2018-06-27T11:56:31.370Z,62.31
2018-06-27T11:59:01.726Z,63.29
2018-06-27T12:01:32.172Z,63.20
2018-06-27T12:04:02.459Z,63.13
2018-06-27T12:06:33.227Z,62.42
2018-06-27T12:09:03.923Z,63.79
2018-06-27T12:11:34.108Z,64.38
2018-06-27T12:14:05.324Z,63.63
2018-06-27T12:16:35.965Z,63.36
2018-06-27T12:19:06.425Z,63.35
2018-06-27T12:21:37.021Z,63.39
2018-06-27T12:24:07.497Z,61.95
2018-06-27T12:26:38.065Z,63.36
2018-06-27T12:29:08.510Z,64.89
2018-06-27T12:31:52.638Z,65.25
2018-06-27T12:34:23.367Z,64.15
2018-06-27T12:36:55.021Z,62.73
2018-06-27T12:39:26.100Z,64.25
2018-06-27T12:41:56.769Z,66.37
2018-06-27T12:44:27.817Z,68.66
2018-06-27T12:46:58.780Z,71.00
2018-06-27T12:49:29.787Z,74.07
2018-06-27T12:52:01.535Z,75.59
2018-06-27T12:54:32.716Z,75.93
2018-06-27T12:57:04.306Z,76.16
2018-06-27T12:59:35.602Z,75.92
2018-06-27T13:02:06.745Z,73.65
2018-06-27T13:04:37.777Z,72.24
2018-06-27T13:07:09.421Z,72.25
2018-06-27T13:09:41.119Z,70.27
2018-06-27T13:12:12.105Z,70.51
2018-06-27T13:14:44.016Z,68.98
2018-06-27T13:17:14.752Z,67.18
2018-06-27T13:19:45.470Z,65.63
2018-06-27T13:22:16.580Z,65.66
2018-06-27T13:24:47.992Z,65.08
2018-06-27T13:27:19.148Z,64.75
2018-06-27T13:29:49.920Z,66.41
2018-06-27T13:32:21.194Z,67.49
2018-06-27T13:34:52.281Z,67.18
2018-06-27T13:37:23.982Z,65.78
2018-06-27T13:39:55.512Z,67.48
2018-06-27T13:42:26.161Z,65.62
2018-06-27T13:44:57.082Z,65.95
2018-06-27T13:47:28.554Z,65.57
2018-06-27T13:50:00.367Z,65.90
2018-06-27T13:52:30.751Z,66.41
2018-06-27T13:55:01.235Z,66.72
2018-06-27T13:57:31.691Z,68.89
2018-06-27T14:00:02.062Z,66.43
2018-06-27T14:02:32.497Z,66.87
2018-06-27T14:05:02.729Z,66.67
2018-06-27T14:07:33.068Z,66.66
2018-06-27T14:10:03.731Z,67.39
2018-06-27T14:12:34.084Z,67.79
2018-06-27T14:15:05.643Z,67.94
2018-06-27T14:17:35.852Z,68.72
2018-06-27T14:20:06.561Z,68.17
2018-06-27T14:22:37.026Z,68.95
2018-06-27T14:25:07.733Z,70.02
2018-06-27T14:27:38.050Z,70.79
2018-06-27T14:30:08.649Z,68.50
2018-06-27T14:32:39.588Z,68.12
2018-06-27T14:35:09.904Z,67.67
2018-06-27T14:37:40.357Z,67.59
2018-06-27T14:40:10.695Z,67.53
2018-06-27T14:42:41.202Z,65.80
2018-06-27T14:45:11.575Z,65.48
2018-06-27T14:47:42.054Z,65.18
2018-06-27T14:50:12.387Z,65.42
2018-06-27T14:52:43.090Z,65.13
2018-06-27T14:55:14.284Z,65.35
2018-06-27T14:57:44.514Z,65.06
2018-06-27T15:00:15.040Z,65.66
2018-06-27T15:02:45.502Z,65.58
2018-06-27T15:05:16.379Z,65.65
2018-06-27T15:07:46.999Z,65.67
2018-06-27T15:10:17.368Z,65.13
2018-06-27T15:12:47.772Z,65.93
2018-06-27T15:15:18.167Z,66.96
2018-06-27T15:17:49.000Z,66.66
2018-06-27T15:20:19.530Z,67.17
2018-06-27T15:22:50.100Z,67.17
2018-06-27T15:25:20.385Z,67.23
2018-06-27T15:27:50.842Z,66.43
2018-06-27T15:30:21.570Z,66.55
2018-06-27T15:32:52.436Z,66.30
2018-06-27T15:35:22.823Z,66.63
2018-06-27T15:37:53.093Z,66.88
2018-06-27T15:40:23.397Z,66.94
2018-06-27T15:42:53.712Z,67.29
2018-06-27T15:45:24.144Z,67.33
2018-06-27T15:47:54.683Z,68.65
2018-06-27T15:50:25.353Z,68.72
2018-06-27T15:52:55.838Z,68.49
2018-06-27T15:55:26.285Z,68.80
2018-06-27T15:57:56.576Z,68.45
2018-06-27T16:00:27.269Z,68.20
2018-06-27T16:02:57.774Z,68.11
2018-06-27T16:05:28.253Z,68.39
2018-06-27T16:07:58.853Z,68.21
2018-06-27T16:10:29.503Z,68.70
2018-06-27T16:12:59.776Z,69.04
2018-06-27T16:15:30.384Z,68.94
2018-06-27T16:18:00.623Z,69.30
2018-06-27T16:20:31.248Z,69.12
2018-06-27T16:23:01.534Z,68.86
2018-06-27T16:25:31.812Z,68.90
2018-06-27T16:28:02.248Z,68.23
2018-06-27T16:30:32.584Z,68.65
2018-06-27T16:33:02.873Z,68.72
2018-06-27T16:35:33.098Z,69.01
2018-06-27T16:38:03.803Z,68.83
2018-06-27T16:40:34.216Z,69.21
2018-06-27T16:43:04.690Z,69.31
2018-06-27T16:45:35.145Z,68.89
2018-06-27T16:48:05.550Z,68.97
2018-06-27T16:50:36.069Z,69.06
2018-06-27T16:53:06.711Z,68.49
2018-06-27T16:55:37.349Z,68.48
2018-06-27T16:58:07.869Z,69.05
2018-06-27T17:00:38.208Z,69.44
2018-06-27T17:03:08.511Z,69.87
2018-06-27T17:05:38.880Z,69.66
2018-06-27T17:08:09.441Z,69.46
2018-06-27T17:10:40.111Z,69.05
2018-06-27T17:13:10.671Z,69.51
2018-06-27T17:15:42.486Z,69.61
2018-06-27T17:18:12.796Z,69.35
2018-06-27T17:20:43.217Z,69.22
2018-06-27T17:23:13.535Z,69.39
2018-06-27T17:25:43.926Z,69.45
2018-06-27T17:28:14.422Z,69.44
2018-06-27T17:30:44.940Z,69.55
2018-06-27T17:33:15.433Z,69.75
2018-06-27T17:35:45.926Z,69.32
2018-06-27T17:38:16.527Z,69.36
2018-06-27T17:40:47.002Z,69.30
2018-06-27T17:43:17.545Z,69.90
2018-06-27T17:45:47.915Z,69.55
2018-06-27T17:48:18.376Z,68.43
2018-06-27T17:50:49.031Z,68.80
2018-06-27T17:53:19.277Z,68.48
2018-06-27T17:55:49.869Z,68.78
2018-06-27T17:58:20.262Z,69.00
2018-06-27T18:00:50.809Z,69.09
2018-06-27T18:03:21.412Z,69.29
2018-06-27T18:05:52.013Z,69.46
2018-06-27T18:08:22.433Z,69.76
2018-06-27T18:10:52.868Z,70.00
2018-06-27T18:13:23.265Z,70.55
2018-06-27T18:15:53.629Z,70.24
2018-06-27T18:18:23.940Z,70.69
2018-06-27T18:20:54.286Z,70.53
2018-06-27T18:23:24.573Z,70.85
2018-06-27T18:25:54.811Z,71.29
2018-06-27T18:28:25.200Z,71.49
2018-06-27T18:30:56.492Z,71.95
2018-06-27T18:33:27.120Z,71.86
2018-06-27T18:35:57.874Z,72.50
2018-06-27T18:38:28.264Z,72.87
2018-06-27T18:40:58.786Z,72.83
2018-06-27T18:43:29.284Z,72.94
2018-06-27T18:45:59.819Z,72.47
2018-06-27T18:48:30.316Z,72.78
2018-06-27T18:51:00.814Z,72.78
2018-06-27T18:53:31.354Z,72.60
2018-06-27T18:56:01.679Z,72.43
2018-06-27T18:58:32.282Z,72.79
2018-06-27T19:01:02.803Z,73.04
2018-06-27T19:03:33.206Z,72.67
2018-06-27T19:06:03.627Z,72.72
2018-06-27T19:08:34.105Z,72.10
2018-06-27T19:11:04.715Z,71.93
2018-06-27T19:13:35.140Z,71.99
2018-06-27T19:16:05.622Z,71.81
2018-06-27T19:18:36.187Z,71.63
2018-06-27T19:21:07.830Z,71.74
2018-06-27T19:23:38.167Z,71.94
2018-06-27T19:26:08.637Z,71.36
2018-06-27T19:28:38.979Z,71.19
2018-06-27T19:31:09.598Z,70.71
2018-06-27T19:33:40.189Z,70.85
2018-06-27T19:36:10.851Z,70.96
2018-06-27T19:38:41.142Z,70.92
2018-06-27T19:41:11.902Z,70.87
2018-06-27T19:43:42.680Z,70.96
2018-06-27T19:46:12.951Z,71.24
2018-06-27T19:48:43.408Z,71.35
2018-06-27T19:51:13.817Z,71.53
2018-06-27T19:53:44.165Z,72.12
2018-06-27T19:56:14.452Z,72.01
2018-06-27T19:58:44.829Z,71.77
2018-06-27T20:01:15.190Z,72.14
2018-06-27T20:03:45.898Z,72.40
2018-06-27T20:06:16.475Z,72.04
2018-06-27T20:08:46.915Z,71.70
2018-06-27T20:11:17.433Z,72.14
2018-06-27T20:13:47.981Z,72.61
2018-06-27T20:16:20.635Z,72.45
2018-06-27T20:18:51.316Z,72.46
2018-06-27T20:21:21.637Z,72.36
2018-06-27T20:23:51.857Z,72.34
2018-06-27T20:26:22.369Z,72.29
2018-06-27T20:28:52.987Z,72.39
2018-06-27T20:31:23.374Z,72.51
2018-06-27T20:33:55.216Z,72.04
2018-06-27T20:36:27.690Z,72.46
2018-06-27T20:39:00.142Z,72.41
2018-06-27T20:41:32.623Z,72.07
2018-06-27T20:44:05.413Z,71.71
2018-06-27T20:46:37.940Z,71.58
2018-06-27T20:49:09.872Z,71.75
2018-06-27T20:51:41.964Z,72.25
2018-06-27T20:54:12.241Z,71.57
2018-06-27T20:56:42.652Z,71.09
2018-06-27T20:59:13.008Z,71.36
2018-06-27T21:01:43.438Z,71.73
2018-06-27T21:04:14.269Z,71.74
2018-06-27T21:06:44.817Z,71.76
2018-06-27T21:09:15.238Z,71.82
2018-06-27T21:11:45.550Z,71.33
2018-06-27T21:14:16.076Z,71.74
2018-06-27T21:16:47.008Z,71.69
2018-06-27T21:19:17.291Z,71.18
2018-06-27T21:21:47.577Z,71.77
2018-06-27T21:24:17.952Z,71.44
2018-06-27T21:26:48.190Z,72.07
2018-06-27T21:29:18.718Z,72.12
2018-06-27T21:31:48.949Z,71.96
2018-06-27T21:34:19.480Z,72.08
2018-06-27T21:36:49.940Z,71.62
2018-06-27T21:39:20.211Z,71.54
2018-06-27T21:41:50.622Z,71.63
2018-06-27T21:44:21.017Z,71.82
2018-06-27T21:46:51.993Z,71.74
2018-06-27T21:49:22.503Z,71.74
2018-06-27T21:51:52.866Z,71.63
2018-06-27T21:54:23.184Z,71.96
2018-06-27T21:56:53.508Z,71.83
2018-06-27T21:59:23.737Z,72.06
2018-06-27T22:01:54.133Z,71.79
2018-06-27T22:04:24.609Z,72.03
2018-06-27T22:06:55.411Z,71.74
2018-06-27T22:09:26.233Z,71.72
2018-06-27T22:11:57.029Z,71.96
2018-06-27T22:14:27.535Z,71.85
2018-06-27T22:16:57.934Z,71.44
2018-06-27T22:19:28.147Z,71.66
2018-06-27T22:21:58.400Z,71.54
2018-06-27T22:24:28.645Z,71.56
2018-06-27T22:26:59.149Z,71.80
2018-06-27T22:29:29.441Z,71.67
2018-06-27T22:31:59.847Z,71.75
2018-06-27T22:34:30.750Z,71.97
2018-06-27T22:37:01.278Z,71.92
2018-06-27T22:39:31.616Z,71.86
2018-06-27T22:42:01.999Z,71.51
2018-06-27T22:44:32.460Z,71.78
2018-06-27T22:47:03.060Z,71.65
2018-06-27T22:49:33.717Z,71.79
2018-06-27T22:52:04.224Z,71.50
2018-06-27T22:54:34.610Z,71.74
2018-06-27T22:57:05.461Z,71.84
2018-06-27T22:59:35.724Z,71.84
2018-06-27T23:02:06.342Z,72.14
2018-06-27T23:04:36.564Z,71.93
2018-06-27T23:07:06.888Z,71.73
2018-06-27T23:09:37.635Z,72.22
2018-06-27T23:12:08.033Z,72.19
2018-06-27T23:14:38.500Z,72.35
2018-06-27T23:17:08.692Z,72.00
2018-06-27T23:19:39.037Z,72.03
2018-06-27T23:22:19.054Z,72.39
2018-06-27T23:24:49.679Z,72.27
2018-06-27T23:27:20.228Z,72.15
2018-06-27T23:29:50.665Z,72.33
2018-06-27T23:32:20.997Z,72.32
2018-06-27T23:34:51.592Z,72.65
2018-06-27T23:37:22.065Z,72.86
2018-06-27T23:39:52.435Z,73.07
2018-06-27T23:42:22.846Z,73.10
2018-06-27T23:44:53.293Z,73.39
2018-06-27T23:47:23.543Z,73.16
2018-06-27T23:49:53.764Z,73.30
2018-06-27T23:52:24.127Z,73.46
2018-06-27T23:54:54.495Z,73.28
2018-06-27T23:57:25.075Z,73.08
2018-06-27T23:59:55.475Z,73.32
